Time;durP1;ratioP1;P1;durP2;ratioP2;P2;SDS_P1;SDS_P2;PMS_P1;PMS_P2;Temp;Humidity;BMP_temperature;BMP_pressure;BME280_temperature;BME280_humidity;BME280_pressure;Samples;Min_cycle;Max_cycle;Signal;HPM_P1;HPM_P2
2022/04/29 00:00:08;;;;;;;22.82;13.75;;;;;;;6.37;68.21;101367.55;2128544;82;21042;-82
2022/04/29 00:03:12;;;;;;;25.77;15.85;;;;;;;6.38;68.56;101375.81;2127650;82;20998;-82
2022/04/29 00:06:14;;;;;;;23.22;13.95;;;;;;;6.35;68.53;101368.13;2127633;82;21037;-80
2022/04/29 00:09:16;;;;;;;25.25;12.78;;;;;;;6.38;68.70;101364.42;2128170;82;21548;-79
2022/04/29 00:12:19;;;;;;;25.15;14.25;;;;;;;6.37;68.67;101357.48;2101176;82;20962;-81
2022/04/29 00:15:20;;;;;;;26.85;15.18;;;;;;;6.31;68.70;101353.94;2127611;82;20965;-83
2022/04/29 00:18:22;;;;;;;24.12;14.45;;;;;;;6.23;68.68;101350.06;2129095;81;21005;-83
2022/04/29 00:21:23;;;;;;;32.30;14.80;;;;;;;6.24;68.77;101366.23;2127969;82;21000;-84
2022/04/29 00:24:24;;;;;;;24.43;14.35;;;;;;;6.30;68.92;101366.28;2130450;82;21358;-83
2022/04/29 00:27:25;;;;;;;;;;;;;;;6.33;69.09;101359.95;2133887;82;20987;-80
2022/04/29 00:30:26;;;;;;;36.60;17.07;;;;;;;6.38;69.28;101363.11;2141389;81;20120;-81
2022/04/29 00:33:28;;;;;;;34.95;17.62;;;;;;;6.40;69.26;101363.84;2150506;81;21049;-81
2022/04/29 00:36:29;;;;;;;30.92;17.80;;;;;;;6.41;69.23;101359.77;2153147;81;21113;-81
2022/04/29 00:39:29;;;;;;;;;;;;;;;6.46;69.32;101361.61;2153135;81;22014;-79
2022/04/29 00:42:31;;;;;;;32.63;17.25;;;;;;;6.50;69.29;101363.09;2151699;81;20101;-81
2022/04/29 00:45:32;;;;;;;29.70;17.70;;;;;;;6.44;69.08;101355.59;2152810;81;21009;-84
2022/04/29 00:48:33;;;;;;;;;;;;;;;6.35;69.10;101360.69;2153124;81;21022;-81
2022/04/29 00:51:35;;;;;;;35.92;18.25;;;;;;;6.36;69.21;101360.56;2149042;81;20116;-81
2022/04/29 00:54:38;;;;;;;30.50;17.27;;;;;;;6.39;69.26;101364.78;2149204;81;21104;-80
2022/04/29 00:57:56;;;;;;;31.73;17.07;;;;;;;6.19;69.40;101352.53;2149162;81;20990;-82
2022/04/29 01:01:02;;;;;;;33.55;17.05;;;;;;;6.04;69.45;101350.51;2153898;81;21048;-82
2022/04/29 01:04:04;;;;;;;32.00;16.73;;;;;;;6.05;69.47;101348.27;2149822;81;20998;-85
2022/04/29 01:07:05;;;;;;;31.45;17.20;;;;;;;6.11;69.46;101347.44;2149263;81;21029;-82
2022/04/29 01:10:10;;;;;;;26.97;16.10;;;;;;;6.14;69.48;101346.77;2148799;81;21000;-82
2022/04/29 01:13:12;;;;;;;26.75;16.62;;;;;;;6.13;69.67;101345.55;2150631;81;21596;-82
2022/04/29 01:16:13;;;;;;;24.02;15.53;;;;;;;6.04;69.48;101341.28;2151317;81;21511;-84
2022/04/29 01:19:14;;;;;;;23.87;14.13;;;;;;;5.96;69.81;101338.34;2152155;81;21547;-83
2022/04/29 01:22:16;;;;;;;25.25;15.28;;;;;;;5.92;69.96;101327.64;2149392;81;21049;-82
2022/04/29 01:25:16;;;;;;;;;;;;;;;5.88;69.98;101335.36;2149964;81;21485;-79
2022/04/29 01:28:21;;;;;;;25.23;14.60;;;;;;;5.83;69.91;101342.29;2149359;81;20108;-84
2022/04/29 01:31:24;;;;;;;27.27;16.70;;;;;;;5.73;69.83;101333.81;2134465;81;21635;-85
2022/04/29 01:34:26;;;;;;;28.98;16.20;;;;;;;5.58;69.94;101326.02;2131093;82;21068;-85
2022/04/29 01:37:27;;;;;;;24.67;14.58;;;;;;;5.51;70.25;101326.53;2131040;82;21307;-83
2022/04/29 01:40:29;;;;;;;25.52;16.12;;;;;;;5.46;70.31;101331.26;2129920;82;20993;-85
2022/04/29 01:43:34;;;;;;;30.55;14.95;;;;;;;5.43;70.20;101323.57;2127425;82;22185;-84
2022/04/29 01:46:35;;;;;;;23.70;14.93;;;;;;;5.43;70.06;101324.89;2125905;82;20983;-84
2022/04/29 01:49:41;;;;;;;28.75;15.05;;;;;;;5.37;70.19;101325.67;2126227;82;21111;-86
2022/04/29 01:52:42;;;;;;;24.35;15.23;;;;;;;5.33;70.31;101318.10;2128050;82;21065;-85
2022/04/29 01:55:43;;;;;;;;;;;;;;;5.30;70.40;101325.73;2135579;82;21657;-83
2022/04/29 01:58:44;;;;;;;33.80;14.87;;;;;;;5.29;70.28;101322.70;2126971;82;20130;-84
2022/04/29 02:01:47;;;;;;;26.00;13.98;;;;;;;5.26;70.16;101324.71;2102896;82;22200;-83
2022/04/29 02:04:48;;;;;;;30.45;15.25;;;;;;;5.18;70.11;101325.25;2130902;82;21057;-82
2022/04/29 02:07:51;;;;;;;32.42;17.42;;;;;;;5.12;69.98;101325.19;2130680;82;20990;-82
2022/04/29 02:10:52;;;;;;;30.77;16.20;;;;;;;5.06;70.06;101318.15;2134288;82;21003;-83
2022/04/29 02:13:55;;;;;;;36.40;17.77;;;;;;;5.05;70.12;101317.79;2125939;82;21088;-81
2022/04/29 02:16:58;;;;;;;29.23;16.50;;;;;;;4.94;70.20;101315.86;2128472;81;20987;-84
2022/04/29 02:20:00;;;;;;;29.23;15.32;;;;;;;4.75;70.34;101312.27;2129597;82;21003;-83
2022/04/29 02:23:01;;;;;;;26.82;14.43;;;;;;;4.67;70.58;101314.55;2126904;82;21023;-83
2022/04/29 02:26:02;;;;;;;;;;;;;;;4.70;70.63;101324.42;2133009;82;21032;-82
2022/04/29 02:29:03;;;;;;;23.67;15.53;;;;;;;4.69;70.56;101317.46;2097345;82;20473;-84
2022/04/29 02:32:05;;;;;;;22.35;14.05;;;;;;;4.67;70.69;101321.13;2129823;82;21053;-81
2022/04/29 02:35:07;;;;;;;24.80;14.75;;;;;;;4.64;70.56;101325.27;2134507;82;20986;-82
2022/04/29 02:38:08;;;;;;;26.87;15.38;;;;;;;4.63;70.52;101315.71;2135369;82;21015;-83
2022/04/29 02:41:09;;;;;;;;;;;;;;;4.56;70.50;101321.84;2134974;82;21014;-83
2022/04/29 02:44:10;;;;;;;;;;;;;;;4.52;70.64;101322.13;2131934;82;20164;-81
2022/04/29 02:47:12;;;;;;;29.40;16.30;;;;;;;4.46;71.05;101321.57;2130431;82;20138;-83
2022/04/29 02:50:13;;;;;;;28.42;16.02;;;;;;;4.45;71.07;101314.64;2130418;82;21055;-82
2022/04/29 02:53:32;;;;;;;32.88;18.55;;;;;;;4.45;71.29;101317.27;2131336;82;21057;-84
2022/04/29 02:56:33;;;;;;;30.88;15.80;;;;;;;4.48;71.44;101321.49;2110158;82;21011;-81
2022/04/29 02:59:42;;;;;;;31.02;17.23;;;;;;;4.48;71.53;101316.23;2125806;82;21014;-85
2022/04/29 03:02:43;;;;;;;29.23;17.75;;;;;;;4.47;71.48;101316.67;2132514;82;21031;-81
2022/04/29 03:05:44;;;;;;;33.78;18.80;;;;;;;4.51;71.59;101317.83;2132217;82;21535;-82
2022/04/29 03:08:46;;;;;;;32.73;18.37;;;;;;;4.50;71.45;101315.64;2131468;82;21567;-81
2022/04/29 03:11:48;;;;;;;37.90;19.90;;;;;;;4.46;71.43;101317.63;2135957;82;21083;-81
2022/04/29 03:14:50;;;;;;;52.88;22.50;;;;;;;4.42;71.52;101317.47;2132970;82;20980;-82
2022/04/29 03:21:18;;;;;;;43.60;22.48;;;;;;;4.37;71.73;101320.86;2132390;82;21583;-80
2022/04/29 03:24:19;;;;;;;39.05;19.92;;;;;;;4.39;71.85;101318.98;2136179;82;21051;-80
2022/04/29 03:27:21;;;;;;;38.70;20.75;;;;;;;4.41;71.90;101327.59;2134500;82;21528;-81
2022/04/29 03:30:23;;;;;;;38.83;20.52;;;;;;;4.38;71.87;101325.16;2134773;81;21810;-81
2022/04/29 03:33:25;;;;;;;37.05;19.77;;;;;;;4.31;72.16;101328.27;2149240;81;20983;-84
2022/04/29 03:36:26;;;;;;;33.33;18.52;;;;;;;4.34;72.23;101333.35;2149155;81;21042;-83
2022/04/29 03:39:28;;;;;;;34.78;18.45;;;;;;;4.32;71.92;101325.55;2150496;81;21116;-83
2022/04/29 03:42:29;;;;;;;34.65;19.10;;;;;;;4.30;71.87;101326.11;2152286;81;20991;-82
2022/04/29 03:45:31;;;;;;;;;;;;;;;4.29;72.20;101324.91;2151818;81;20989;-83
2022/04/29 03:49:35;;;;;;;31.90;18.12;;;;;;;4.33;72.23;101333.80;2154041;81;20486;-81
2022/04/29 03:51:40;;;;;;;32.42;18.48;;;;;;;4.38;72.21;101334.36;2146621;81;21010;-84
2022/04/29 03:54:41;;;;;;;;;;;;;;;4.50;72.19;101331.41;2152195;81;21062;-83
2022/04/29 03:57:42;;;;;;;35.90;17.95;;;;;;;4.57;72.19;101330.57;2151110;81;20640;-81
2022/04/29 04:00:44;;;;;;;38.25;18.65;;;;;;;4.67;72.29;101331.20;2151292;81;21059;-83
2022/04/29 04:03:45;;;;;;;42.88;21.95;;;;;;;4.85;72.56;101332.25;2150540;81;21097;-83
2022/04/29 04:06:51;;;;;;;41.98;21.25;;;;;;;5.02;72.47;101331.16;2154514;81;21038;-81
2022/04/29 04:10:00;;;;;;;50.73;24.77;;;;;;;5.35;72.77;101340.75;2152572;81;21073;-81
2022/04/29 04:13:01;;;;;;;60.80;30.30;;;;;;;5.74;72.77;101341.59;2148085;81;21552;-83
2022/04/29 04:16:10;;;;;;;74.72;32.20;;;;;;;6.10;72.72;101340.50;2116679;81;21024;-82
2022/04/29 04:19:12;;;;;;;51.02;24.65;;;;;;;6.48;72.55;101340.41;2152127;81;21079;-83
2022/04/29 04:22:13;;;;;;;78.37;35.88;;;;;;;6.73;72.08;101346.91;2152831;81;20976;-83
2022/04/29 04:25:14;;;;;;;52.20;27.73;;;;;;;7.15;72.15;101345.16;2150895;81;21052;-82
2022/04/29 04:28:16;;;;;;;40.23;22.62;;;;;;;7.68;71.83;101344.20;2151086;81;21104;-82
2022/04/29 04:31:22;;;;;;;41.40;22.90;;;;;;;8.19;71.69;101351.67;2154042;81;21002;-83
2022/04/29 04:37:48;;;;;;;45.67;25.23;;;;;;;9.10;70.66;101345.73;2152682;81;21636;-81
2022/04/29 04:40:51;;;;;;;37.75;21.45;;;;;;;9.60;70.30;101351.21;2151387;81;21835;-82
2022/04/29 04:43:52;;;;;;;35.20;21.17;;;;;;;9.87;69.78;101347.53;2120894;81;21042;-81
2022/04/29 04:46:54;;;;;;;36.55;21.20;;;;;;;10.13;69.57;101352.38;2161029;81;21016;-83
2022/04/29 04:49:57;;;;;;;42.85;20.62;;;;;;;10.09;68.79;101353.14;2152877;81;21130;-81
2022/04/29 04:53:05;;;;;;;36.90;20.50;;;;;;;9.93;68.42;101351.47;2163200;81;21086;-81
2022/04/29 04:56:07;;;;;;;38.65;18.48;;;;;;;9.77;68.27;101361.70;2153661;81;21515;-79
2022/04/29 04:59:09;;;;;;;36.53;19.32;;;;;;;9.71;68.33;101364.88;2163371;81;21493;-78
2022/04/29 05:02:10;;;;;;;34.40;19.70;;;;;;;9.65;68.59;101368.89;2158095;81;20969;-80
2022/04/29 05:05:29;;;;;;;31.15;17.27;;;;;;;9.78;68.82;101370.03;2164133;81;21142;-81
2022/04/29 05:08:32;;;;;;;30.02;17.37;;;;;;;9.87;67.91;101374.05;2157206;81;21045;-80
2022/04/29 05:11:35;;;;;;;29.42;17.05;;;;;;;10.03;68.35;101371.41;2158850;81;21074;-82
2022/04/29 05:14:36;;;;;;;26.70;16.07;;;;;;;10.18;67.99;101380.67;2167620;81;21066;-83
2022/04/29 05:17:41;;;;;;;28.52;17.27;;;;;;;10.21;67.29;101383.55;2157006;81;21015;-83
2022/04/29 05:21:00;;;;;;;36.15;19.10;;;;;;;10.15;67.21;101384.92;2093122;82;21104;-84
2022/04/29 05:24:01;;;;;;;28.92;17.35;;;;;;;10.15;66.97;101384.92;2149206;81;21073;-83
2022/04/29 05:27:05;;;;;;;27.93;16.93;;;;;;;10.17;67.09;101388.30;2106390;81;21017;-84
2022/04/29 05:30:14;;;;;;;27.20;14.98;;;;;;;10.54;67.22;101395.72;2120334;81;21024;-82
2022/04/29 05:33:36;;;;;;;18.35;12.75;;;;;;;11.40;66.59;101380.85;2161627;81;21529;-84
2022/04/29 05:36:49;;;;;;;15.60;11.22;;;;;;;12.44;65.55;101390.14;2157513;81;21037;-84
2022/04/29 05:43:18;;;;;;;19.45;12.00;;;;;;;13.61;62.11;101387.48;2161404;81;21070;-84
2022/04/29 05:46:19;;;;;;;15.83;9.98;;;;;;;13.65;61.41;101388.00;2163971;81;21013;-82
2022/04/29 05:49:20;;;;;;;19.55;10.48;;;;;;;13.39;60.24;101386.14;2158166;81;21570;-83
2022/04/29 05:52:23;;;;;;;15.85;10.65;;;;;;;13.57;60.15;101382.60;2156786;81;21514;-84
2022/04/29 05:55:24;;;;;;;16.80;10.68;;;;;;;13.88;58.19;101381.64;2161867;81;21474;-82
2022/04/29 05:58:26;;;;;;;13.88;10.32;;;;;;;14.10;58.65;101390.44;2162705;81;21120;-83
2022/04/29 06:01:29;;;;;;;16.97;11.75;;;;;;;14.68;58.10;101390.22;2145743;81;21024;-83
2022/04/29 06:04:30;;;;;;;16.45;10.72;;;;;;;15.39;57.65;101390.14;2126467;81;21007;-82
2022/04/29 06:07:32;;;;;;;14.40;9.48;;;;;;;15.94;56.69;101393.98;2159033;81;21064;-85
2022/04/29 06:10:33;;;;;;;19.35;10.53;;;;;;;16.45;55.13;101389.11;2163276;81;20993;-84
2022/04/29 06:13:37;;;;;;;14.45;8.60;;;;;;;16.90;54.40;101388.07;2151651;81;21015;-83
2022/04/29 06:16:56;;;;;;;15.95;9.35;;;;;;;17.21;51.67;101383.48;2166906;81;21027;-85
2022/04/29 06:20:07;;;;;;;13.83;9.00;;;;;;;17.21;52.15;101386.67;2118542;81;21001;-83
2022/04/29 06:23:26;;;;;;;11.43;8.80;;;;;;;17.63;51.70;101385.31;2159512;81;21085;-84
2022/04/29 06:26:28;;;;;;;20.55;8.90;;;;;;;17.40;49.06;101390.69;2161448;81;21079;-84
2022/04/29 06:29:30;;;;;;;14.70;9.08;;;;;;;17.46;50.27;101391.34;2155454;81;21041;-85
2022/04/29 06:32:31;;;;;;;10.68;8.03;;;;;;;17.56;49.19;101391.90;2158814;81;21013;-83
2022/04/29 06:35:42;;;;;;;13.18;7.87;;;;;;;17.46;48.83;101400.22;2163369;81;21566;-85
2022/04/29 06:38:43;;;;;;;14.50;8.28;;;;;;;17.61;48.66;101389.52;2151915;81;21009;-82
2022/04/29 06:42:03;;;;;;;13.43;8.30;;;;;;;17.83;47.85;101389.16;2157342;81;21063;-84
2022/04/29 06:45:16;;;;;;;11.40;7.62;;;;;;;18.09;47.24;101393.25;2152584;81;21014;-83
2022/04/29 06:48:35;;;;;;;12.88;9.00;;;;;;;18.56;47.08;101384.78;2161372;81;21140;-83
2022/04/29 06:51:44;;;;;;;12.10;6.15;;;;;;;18.98;46.21;101385.90;2142522;81;21033;-84
2022/04/29 06:54:49;;;;;;;7.92;5.15;;;;;;;19.22;45.35;101390.56;2166854;81;21105;-83
2022/04/29 06:57:51;;;;;;;7.47;6.00;;;;;;;19.00;43.68;101390.55;2161589;81;20964;-82
2022/04/29 07:00:52;;;;;;;9.95;6.03;;;;;;;19.07;41.17;101393.84;2162164;81;21579;-82
2022/04/29 07:03:53;;;;;;;7.72;5.53;;;;;;;18.89;41.64;101392.91;2160763;81;21485;-84
2022/04/29 07:06:56;;;;;;;8.03;5.40;;;;;;;18.94;41.51;101387.28;2156744;81;21645;-83
2022/04/29 07:09:58;;;;;;;13.72;5.80;;;;;;;19.23;42.58;101395.77;2158699;81;21505;-83
2022/04/29 07:13:17;;;;;;;10.75;5.67;;;;;;;18.98;41.60;101395.31;2157268;81;21468;-84
2022/04/29 07:16:19;;;;;;;11.85;6.50;;;;;;;18.67;40.84;101402.28;2161335;81;21044;-84
2022/04/29 07:19:23;;;;;;;8.40;5.60;;;;;;;18.08;41.22;101406.37;2111956;81;21038;-84
2022/04/29 07:22:24;;;;;;;9.15;4.70;;;;;;;18.03;38.97;101399.37;2166625;81;21061;-83
2022/04/29 07:25:26;;;;;;;7.05;4.45;;;;;;;17.88;41.37;101398.85;2155850;81;21088;-84
2022/04/29 07:28:27;;;;;;;11.10;4.50;;;;;;;18.18;40.13;101398.84;2157141;81;21062;-88
2022/04/29 07:31:28;;;;;;;6.85;4.80;;;;;;;18.17;40.79;101397.19;2161095;81;21017;-87
2022/04/29 07:41:45;;;;;;;6.95;4.20;;;;;;;17.54;40.38;101397.98;2064911;81;21042;-85
2022/04/29 07:44:46;;;;;;;7.45;4.45;;;;;;;17.30;40.46;101400.86;2166912;81;21074;-85
2022/04/29 07:47:50;;;;;;;10.78;4.37;;;;;;;17.23;40.46;101400.72;2164353;81;21003;-87
2022/04/29 07:50:59;;;;;;;6.87;4.58;;;;;;;17.10;40.28;101403.19;2164128;81;21552;-85
2022/04/29 07:54:01;;;;;;;10.08;4.97;;;;;;;17.11;40.57;101400.82;2166060;81;21461;-86
2022/04/29 07:57:02;;;;;;;8.20;4.28;;;;;;;16.96;38.37;101399.42;2168166;81;20983;-85
2022/04/29 08:00:05;;;;;;;14.40;5.12;;;;;;;17.05;40.36;101396.17;2167230;81;20973;-85
2022/04/29 08:03:18;;;;;;;8.48;4.72;;;;;;;17.65;40.39;101398.88;2134765;81;21578;-86
2022/04/29 08:06:26;;;;;;;7.75;4.45;;;;;;;18.14;40.17;101400.25;2155740;81;21040;-89
2022/04/29 08:09:27;;;;;;;7.10;3.98;;;;;;;18.53;39.65;101402.63;2164687;81;21034;-86
2022/04/29 08:12:29;;;;;;;6.90;4.53;;;;;;;18.85;39.70;101397.84;2163063;81;20965;-88
2022/04/29 08:15:49;;;;;;;5.78;4.45;;;;;;;18.78;38.11;101396.44;2164422;81;21065;-86
2022/04/29 08:18:53;;;;;;;6.22;4.45;;;;;;;18.31;38.55;101401.72;2150402;81;21065;-86
2022/04/29 08:21:56;;;;;;;5.87;3.85;;;;;;;18.00;38.37;101397.88;2112399;81;21560;-89
2022/04/29 08:24:57;;;;;;;6.10;4.30;;;;;;;18.40;38.50;101394.91;2164368;81;21552;-86
2022/04/29 08:28:00;;;;;;;5.37;4.10;;;;;;;18.72;37.92;101393.11;2169170;81;20972;-88
2022/04/29 08:31:02;;;;;;;5.33;4.20;;;;;;;18.96;37.87;101389.80;2168674;81;21103;-86
2022/04/29 08:34:05;;;;;;;5.97;4.00;;;;;;;19.14;38.09;101383.45;2154451;81;21085;-88
2022/04/29 08:37:06;;;;;;;6.10;4.35;;;;;;;19.42;38.04;101379.97;2159532;81;21052;-86
2022/04/29 08:40:13;;;;;;;5.50;4.03;;;;;;;19.52;36.91;101371.06;2160272;81;21030;-80
2022/04/29 08:43:17;;;;;;;6.05;4.28;;;;;;;19.35;37.25;101374.55;2156356;81;21057;-80
2022/04/29 08:46:21;;;;;;;9.73;4.75;;;;;;;19.65;36.83;101369.85;2157810;81;21002;-80
2022/04/29 08:49:37;;;;;;;6.17;4.17;;;;;;;19.58;35.74;101377.00;2152412;81;20988;-81
2022/04/29 08:52:39;;;;;;;5.15;4.15;;;;;;;19.65;36.41;101369.85;2157744;81;21018;-80
2022/04/29 08:59:02;;;;;;;5.97;4.25;;;;;;;19.62;35.59;101365.32;2156287;81;21521;-82
2022/04/29 09:02:05;;;;;;;5.90;4.28;;;;;;;19.36;35.33;101365.44;2161556;81;21037;-82
2022/04/29 09:05:11;;;;;;;7.17;4.45;;;;;;;19.27;35.06;101362.57;2156323;81;20998;-82
2022/04/29 09:08:20;;;;;;;7.85;4.55;;;;;;;19.35;35.62;101367.81;2166033;81;21470;-80
2022/04/29 09:11:25;;;;;;;5.80;4.83;;;;;;;19.53;35.86;101356.56;2158681;81;20960;-80
2022/04/29 09:14:26;;;;;;;5.22;4.20;;;;;;;19.56;35.30;101355.34;2156419;81;21017;-82
2022/04/29 09:17:28;;;;;;;9.25;5.00;;;;;;;19.43;35.43;101360.95;2161160;81;21053;-80
2022/04/29 09:20:30;;;;;;;8.05;4.60;;;;;;;19.49;35.18;101357.48;2161859;81;21060;-81
2022/04/29 09:23:31;;;;;;;5.90;4.30;;;;;;;19.41;34.82;101352.23;2160169;81;21481;-80
2022/04/29 09:26:39;;;;;;;7.45;4.53;;;;;;;19.44;35.84;101361.78;2110906;81;21007;-82
2022/04/29 09:30:01;;;;;;;7.60;4.45;;;;;;;19.56;35.53;101352.13;2164249;81;21054;-80
2022/04/29 09:33:23;;;;;;;6.47;4.50;;;;;;;19.79;35.67;101355.11;2162211;81;21085;-81
2022/04/29 09:36:43;;;;;;;5.50;4.25;;;;;;;19.74;34.58;101353.52;2168206;81;21036;-80
2022/04/29 09:40:00;;;;;;;6.17;4.30;;;;;;;19.63;33.03;101351.68;2155650;81;20994;-81
2022/04/29 09:43:01;;;;;;;5.33;4.35;;;;;;;19.23;33.89;101345.99;2155373;81;21056;-82
2022/04/29 09:46:23;;;;;;;9.10;4.75;;;;;;;19.31;34.35;101330.20;2162621;81;20988;-80
2022/04/29 09:49:28;;;;;;;7.12;5.08;;;;;;;19.32;34.08;101331.87;2163164;81;21539;-81
2022/04/29 09:52:32;;;;;;;7.87;4.75;;;;;;;19.33;34.63;101336.74;2161462;81;21054;-79
2022/04/29 09:55:33;;;;;;;5.87;4.47;;;;;;;19.37;34.87;101336.66;2170278;81;21045;-80
2022/04/29 09:58:35;;;;;;;6.87;4.78;;;;;;;19.28;34.75;101331.94;2158103;81;21029;-80
2022/04/29 10:01:36;;;;;;;6.35;4.95;;;;;;;19.31;34.97;101330.72;2163852;81;20976;-80
2022/04/29 10:04:42;;;;;;;8.68;4.80;;;;;;;19.36;35.38;101330.97;2149837;81;21020;-81
2022/04/29 10:07:44;;;;;;;8.80;5.03;;;;;;;19.35;35.31;101329.31;2155587;81;20958;-80
2022/04/29 10:10:48;;;;;;;7.28;4.78;;;;;;;19.41;35.03;101330.70;2169426;81;21069;-81
2022/04/29 10:13:51;;;;;;;8.30;4.83;;;;;;;19.49;35.06;101322.48;2162651;81;21104;-80
2022/04/29 10:24:01;;;;;;;7.92;5.03;;;;;;;19.15;34.48;101328.64;2157146;81;20993;-82
2022/04/29 10:27:02;;;;;;;6.22;4.60;;;;;;;18.83;34.87;101313.84;2166257;81;21098;-80
2022/04/29 10:30:05;;;;;;;6.10;4.62;;;;;;;18.55;34.91;101319.93;2157387;81;21008;-80
2022/04/29 10:33:23;;;;;;;8.00;4.95;;;;;;;18.68;35.93;101319.25;2159795;81;21110;-80
2022/04/29 10:36:26;;;;;;;6.50;4.65;;;;;;;18.70;35.66;101321.77;2143204;82;21009;-81
2022/04/29 10:39:27;;;;;;;8.90;4.85;;;;;;;18.54;35.93;101317.45;2129569;82;21040;-80
2022/04/29 10:42:28;;;;;;;7.12;5.00;;;;;;;18.65;35.65;101311.58;2153970;81;21639;-80
2022/04/29 10:45:29;;;;;;;6.30;4.67;;;;;;;18.88;34.54;101304.69;2156504;81;21006;-80
2022/04/29 10:48:37;;;;;;;7.55;4.87;;;;;;;18.99;35.46;101307.38;2105489;82;20997;-80
2022/04/29 10:51:52;;;;;;;7.17;5.40;;;;;;;18.94;35.28;101301.75;2138391;81;21073;-81
2022/04/29 10:54:58;;;;;;;10.43;4.83;;;;;;;18.81;35.17;101293.89;2148580;81;21125;-80
2022/04/29 10:58:22;;;;;;;6.10;4.72;;;;;;;18.57;35.44;101304.45;2151782;81;21492;-81
2022/04/29 11:01:27;;;;;;;6.20;4.58;;;;;;;18.91;35.97;101300.79;2173650;81;21030;-82
2022/04/29 11:04:36;;;;;;;7.80;4.12;;;;;;;19.14;35.73;101284.43;2155241;81;21072;-81
2022/04/29 11:07:44;;;;;;;6.25;4.95;;;;;;;19.14;35.58;101291.16;2162488;81;21017;-81
2022/04/29 11:10:55;;;;;;;6.90;4.37;;;;;;;18.91;33.55;101288.69;2157945;81;21598;-83
2022/04/29 11:14:00;;;;;;;6.92;4.75;;;;;;;18.59;34.17;101294.36;2142106;82;21001;-82
2022/04/29 11:17:25;;;;;;;8.03;5.22;;;;;;;18.07;34.95;101291.88;2134996;82;21588;-81
2022/04/29 11:20:31;;;;;;;7.47;5.47;;;;;;;17.79;35.41;101292.55;2155612;81;21057;-81
2022/04/29 11:26:52;;;;;;;7.45;5.25;;;;;;;17.69;35.94;101291.47;2159424;81;21025;-81
2022/04/29 11:30:02;;;;;;;6.87;4.60;;;;;;;17.87;35.11;101287.09;2154165;81;21032;-84
2022/04/29 11:33:08;;;;;;;8.48;5.25;;;;;;;18.05;35.16;101281.86;2153046;81;21275;-84
2022/04/29 11:36:12;;;;;;;7.10;5.25;;;;;;;18.19;34.69;101283.69;2168503;81;21037;-83
2022/04/29 11:39:17;;;;;;;8.28;5.45;;;;;;;18.27;35.94;101281.37;2157429;81;21696;-85
2022/04/29 11:42:19;;;;;;;8.53;5.35;;;;;;;18.28;35.69;101275.83;2155368;81;21547;-84
2022/04/29 11:45:22;;;;;;;6.12;4.47;;;;;;;18.54;35.98;101268.56;2152785;81;20991;-84
2022/04/29 11:48:28;;;;;;;6.15;4.90;;;;;;;18.93;36.29;101265.95;2165835;81;20962;-84
2022/04/29 11:51:30;;;;;;;6.97;3.90;;;;;;;19.07;35.09;101262.05;2127922;81;20978;-84
2022/04/29 11:54:32;;;;;;;4.95;3.72;;;;;;;18.81;34.23;101252.73;2159544;81;20990;-85
2022/04/29 11:57:37;;;;;;;5.92;4.58;;;;;;;18.91;34.78;101264.48;2159649;81;21013;-82
2022/04/29 12:00:38;;;;;;;5.30;3.30;;;;;;;19.04;34.65;101255.19;2163207;81;20969;-83
2022/04/29 12:03:49;;;;;;;4.12;3.27;;;;;;;18.77;33.08;101250.91;2148261;81;21025;-81
2022/04/29 12:06:57;;;;;;;7.03;3.67;;;;;;;18.74;32.57;101246.45;2159073;81;21556;-83
2022/04/29 12:09:59;;;;;;;4.67;3.25;;;;;;;18.67;33.20;101249.05;2123021;81;21045;-84
2022/04/29 12:13:04;;;;;;;8.13;3.90;;;;;;;18.83;33.76;101243.11;2164928;81;20997;-81
2022/04/29 12:16:07;;;;;;;8.05;3.90;;;;;;;18.95;34.01;101242.41;2162353;81;20996;-83
2022/04/29 12:19:18;;;;;;;4.83;3.58;;;;;;;18.85;33.88;101243.75;2160710;81;21514;-83
2022/04/29 12:22:30;;;;;;;;;;;;;;;18.67;33.31;101240.98;2155655;81;20991;-82
2022/04/29 12:25:39;;;;;;;5.40;4.30;;;;;;;18.43;33.96;101246.22;2153384;81;20145;-83
2022/04/29 12:28:41;;;;;;;6.97;3.17;;;;;;;18.52;34.18;101236.17;2153354;81;21098;-82
2022/04/29 12:35:09;;;;;;;8.38;4.05;;;;;;;18.79;34.86;101217.95;2134240;82;21077;-82
2022/04/29 12:38:18;;;;;;;7.40;3.75;;;;;;;18.65;34.07;101212.64;2138284;82;21021;-83
2022/04/29 12:41:25;;;;;;;3.37;2.95;;;;;;;18.62;34.42;101215.19;2126407;82;21046;-82
2022/04/29 12:45:04;;;;;;;4.45;3.00;;;;;;;18.67;34.25;101215.45;2138074;82;21473;-82
2022/04/29 12:48:11;;;;;;;3.90;3.12;;;;;;;18.62;32.62;101206.30;2140155;82;21112;-82
2022/04/29 12:51:28;;;;;;;5.67;2.92;;;;;;;18.39;33.62;101210.02;2136261;82;21052;-81
2022/04/29 12:54:30;;;;;;;5.35;3.37;;;;;;;18.47;33.39;101203.66;2122906;82;20986;-80
2022/04/29 12:57:32;;;;;;;3.20;2.50;;;;;;;18.48;33.24;101193.26;2132104;82;20959;-84
2022/04/29 13:00:35;;;;;;;6.45;3.08;;;;;;;18.45;33.02;101192.30;2143941;82;21056;-82
2022/04/29 13:03:36;;;;;;;7.30;3.25;;;;;;;18.36;33.29;101184.36;2134384;82;21006;-81
2022/04/29 13:06:39;;;;;;;7.25;2.98;;;;;;;18.40;32.91;101180.77;2138986;82;21096;-85
2022/04/29 13:09:40;;;;;;;4.35;2.60;;;;;;;18.48;33.31;101177.95;2134164;82;20974;-84
2022/04/29 13:12:44;;;;;;;6.20;3.42;;;;;;;18.53;32.19;101177.39;2145670;82;21001;-82
2022/04/29 13:15:48;;;;;;;4.25;2.60;;;;;;;18.47;32.31;101174.96;2140295;82;21358;-81
2022/04/29 13:18:53;;;;;;;6.08;3.02;;;;;;;18.48;32.94;101170.41;2136408;82;21475;-81
2022/04/29 13:21:54;;;;;;;3.72;2.85;;;;;;;18.35;32.03;101161.19;2137225;81;21004;-80
2022/04/29 13:25:01;;;;;;;5.30;3.05;;;;;;;18.14;32.52;101159.86;2142131;82;21037;-83
2022/04/29 13:28:04;;;;;;;5.97;3.05;;;;;;;17.88;32.54;101159.08;2138719;82;20974;-83
2022/04/29 13:31:07;;;;;;;4.00;3.05;;;;;;;17.78;32.53;101162.53;2137901;82;21018;-81
2022/04/29 13:34:08;;;;;;;8.33;3.77;;;;;;;17.63;32.53;101160.71;2132969;81;20989;-80
2022/04/29 13:37:09;;;;;;;4.90;2.33;;;;;;;17.51;32.50;101153.31;2149232;81;20974;-83
2022/04/29 13:40:11;;;;;;;5.90;2.47;;;;;;;17.52;33.12;101151.80;2141181;81;21016;-85
2022/04/29 13:43:13;;;;;;;4.37;2.60;;;;;;;17.59;32.59;101154.03;2156638;81;21452;-83
2022/04/29 13:46:14;;;;;;;5.33;2.40;;;;;;;17.59;32.51;101141.13;2146589;81;21438;-82
2022/04/29 13:49:16;;;;;;;3.67;2.75;;;;;;;17.63;32.65;101146.47;2149651;81;21479;-85
2022/04/29 13:55:50;;;;;;;6.72;3.50;;;;;;;17.61;32.51;101139.10;2105306;81;28771;-82
2022/04/29 13:58:51;;;;;;;23.10;7.42;;;;;;;17.56;32.81;101141.00;2146843;81;21032;-83
2022/04/29 14:01:52;;;;;;;6.92;4.03;;;;;;;17.54;32.93;101142.20;2150278;81;20987;-82
2022/04/29 14:04:53;;;;;;;11.28;3.95;;;;;;;17.33;32.30;101130.91;2138226;81;21061;-82
2022/04/29 14:07:57;;;;;;;14.73;4.10;;;;;;;17.35;33.39;101131.05;2148747;81;21041;-85
2022/04/29 14:10:58;;;;;;;6.10;3.85;;;;;;;17.30;33.16;101132.11;2145111;81;21454;-82
2022/04/29 14:14:00;;;;;;;6.05;3.65;;;;;;;17.28;33.47;101135.99;2143587;81;20988;-81
2022/04/29 14:17:01;;;;;;;5.03;3.55;;;;;;;17.34;33.53;101130.70;2149335;81;21009;-85
2022/04/29 14:20:05;;;;;;;5.25;3.87;;;;;;;17.40;33.65;101123.28;2142284;81;21039;-85
2022/04/29 14:23:07;;;;;;;8.60;3.47;;;;;;;17.42;33.57;101127.09;2144394;81;21043;-82
2022/04/29 14:26:09;;;;;;;7.87;3.30;;;;;;;17.43;33.79;101122.90;2148920;81;21013;-81
2022/04/29 14:29:10;;;;;;;4.67;3.33;;;;;;;17.42;33.47;101123.07;2144667;81;21441;-83
2022/04/29 14:32:13;;;;;;;4.70;3.30;;;;;;;17.39;33.39;101120.25;2139389;81;21042;-81
2022/04/29 14:35:14;;;;;;;3.77;2.90;;;;;;;17.29;33.52;101123.75;2159565;81;21008;-82
2022/04/29 14:38:18;;;;;;;8.88;3.42;;;;;;;17.20;33.28;101115.45;2154174;81;21105;-80
2022/04/29 14:41:18;;;;;;;8.80;3.95;;;;;;;17.11;33.61;101122.77;2157373;81;21541;-81
2022/04/29 14:44:20;;;;;;;5.40;3.25;;;;;;;17.07;33.96;101117.47;2162465;81;21008;-82
2022/04/29 14:47:21;;;;;;;6.15;3.52;;;;;;;17.01;33.83;101112.85;2160574;81;21084;-84
2022/04/29 14:50:22;;;;;;;7.22;3.58;;;;;;;16.90;34.01;101111.45;2153109;81;21012;-84
2022/04/29 14:53:23;;;;;;;7.30;3.72;;;;;;;16.89;34.08;101113.80;2156051;81;21444;-81